CDT,Max TemperatureF,Mean TemperatureF,Min TemperatureF,Max Dew PointF,MeanDew PointF,Min DewpointF,Max Humidity, Mean Humidity, Min Humidity, Max Sea Level PressureIn, Mean Sea Level PressureIn, Min Sea Level PressureIn, Max VisibilityMiles, Mean VisibilityMiles, Min VisibilityMiles, Max Wind SpeedMPH, Mean Wind SpeedMPH, Max Gust SpeedMPH,PrecipitationIn, CloudCover, Events, WindDirDegrees
2011-10-1,62,48,33,36,29,16,81,56,16,30.39,30.31,30.26,10,10,10,8,4,,0.00,0,,104
2011-10-2,75,56,37,37,29,10,76,47,8,30.28,30.23,30.16,10,10,10,8,5,,0.00,0,,169
2011-10-3,80,60,41,41,28,3,81,44,5,30.25,30.21,30.18,10,10,10,9,2,,0.00,0,,151
2011-10-4,82,64,46,43,27,-15,71,37,4,30.25,30.19,30.12,10,10,10,14,7,20,0.00,0,,141
2011-10-5,84,70,55,43,35,19,54,36,10,30.17,30.13,30.08,10,10,10,13,7,17,0.00,0,,149
2011-10-6,80,66,51,46,41,25,72,45,13,30.16,30.10,30.05,10,10,10,16,9,25,0.00,0,,140
2011-10-7,84,72,60,48,45,39,63,37,24,30.10,30.05,29.99,10,10,10,24,14,33,0.00,1,,162
2011-10-8,84,73,62,48,47,43,59,41,25,30.17,30.12,30.08,10,10,10,18,11,25,0.00,0,,170
2011-10-9,80,66,53,52,46,37,77,51,21,30.27,30.21,30.16,10,10,10,14,8,20,0.00,0,,146
2011-10-10,78,66,53,55,45,37,82,56,24,30.15,30.06,29.96,10,10,7,13,8,20,0.08,2,Rain,149
2011-10-11,75,65,55,57,51,45,88,66,34,29.98,29.92,29.85,10,8,3,13,5,18,0.01,3,,157
2011-10-12,64,60,55,57,54,50,88,80,72,29.83,29.74,29.64,10,8,3,15,7,20,0.95,3,Rain,122
2011-10-13,64,58,50,52,46,39,88,68,42,29.67,29.65,29.63,10,8,2,24,11,32,0.06,3,Rain,300
2011-10-14,59,52,46,43,39,36,81,64,45,29.81,29.72,29.65,10,10,10,28,14,38,0.00,6,,291
2011-10-15,62,52,41,37,34,21,81,57,22,29.95,29.89,29.85,10,10,7,17,11,26,0.00,1,Rain,277
2011-10-16,60,51,42,41,31,16,81,53,19,29.93,29.88,29.82,10,10,10,26,9,32,0.02,2,Rain,303
2011-10-17,57,46,35,34,26,18,75,52,21,29.94,29.90,29.85,10,10,10,21,10,30,0.00,0,,281
2011-10-18,46,40,33,34,30,27,75,63,53,29.99,29.93,29.85,10,10,4,18,10,24,0.00,5,,319
2011-10-19,50,44,39,34,31,27,81,63,43,30.01,29.97,29.93,10,10,10,22,14,28,0.00,7,,352
2011-10-20,55,44,33,32,26,12,81,55,19,29.96,29.89,29.85,10,10,10,28,15,36,0.00,2,,329
2011-10-21,60,43,26,32,25,19,86,56,23,30.08,30.04,29.99,10,10,7,13,5,,0.00,0,,243
2011-10-22,62,50,37,37,30,18,81,52,18,30.10,30.05,30.00,10,10,7,10,6,,0.00,0,,327
2011-10-23,68,52,37,45,36,28,76,57,28,29.99,29.90,29.79,10,10,10,20,7,28,0.00,3,Rain,203
2011-10-24,69,51,33,43,33,19,87,59,15,30.09,30.01,29.94,10,7,0,13,4,16,0.00,2,Fog,233
2011-10-25,73,60,46,46,41,37,76,56,29,29.93,29.78,29.68,10,10,10,20,10,28,0.00,2,,104
2011-10-26,51,46,42,37,33,27,76,65,40,30.06,30.02,29.92,10,10,4,15,11,21,0.00,5,,355
2011-10-27,53,43,33,36,27,18,87,55,24,30.11,30.06,30.03,10,9,2,13,5,18,0.00,3,,306
2011-10-28,55,42,30,27,23,9,75,51,18,30.12,30.07,30.02,10,10,10,17,6,23,0.00,2,,233
2011-10-29,53,38,24,25,15,-2,74,42,10,30.09,30.03,29.92,10,10,10,20,5,20,0.00,0,,208
2011-10-30,51,45,39,39,30,18,81,56,30,29.94,29.86,29.80,10,10,10,22,15,30,0.01,6,Rain,226
2011-10-31,51,44,37,32,30,27,75,59,38,30.05,30.01,29.95,10,10,10,13,8,12,0.00,3,,249